sensor_id;sensor_type;location;lat;lon;timestamp;pressure;altitude;pressure_sealevel;temperature;humidity
71974;BME280;59840;52.122;5.404;2023-04-26T00:01:28;102102.72;;;2.50;92.52
71974;BME280;59840;52.122;5.404;2023-04-26T00:03:55;102094.56;;;2.45;92.73
71974;BME280;59840;52.122;5.404;2023-04-26T00:06:23;102097.34;;;2.43;93.07
71974;BME280;59840;52.122;5.404;2023-04-26T00:08:49;102095.72;;;2.50;93.07
71974;BME280;59840;52.122;5.404;2023-04-26T00:11:16;102094.94;;;2.58;93.33
71974;BME280;59840;52.122;5.404;2023-04-26T00:13:42;102101.75;;;2.51;92.64
71974;BME280;59840;52.122;5.404;2023-04-26T00:16:09;102106.78;;;2.36;92.45
71974;BME280;59840;52.122;5.404;2023-04-26T00:18:36;102101.88;;;2.25;92.55
71974;BME280;59840;52.122;5.404;2023-04-26T00:21:02;102091.09;;;2.20;92.98
71974;BME280;59840;52.122;5.404;2023-04-26T00:23:29;102103.31;;;2.19;93.04
71974;BME280;59840;52.122;5.404;2023-04-26T00:25:56;102096.63;;;2.17;93.68
71974;BME280;59840;52.122;5.404;2023-04-26T00:28:22;102093.84;;;2.10;93.44
71974;BME280;59840;52.122;5.404;2023-04-26T00:30:49;102087.34;;;2.06;93.75
71974;BME280;59840;52.122;5.404;2023-04-26T00:33:16;102081.94;;;1.99;93.26
71974;BME280;59840;52.122;5.404;2023-04-26T00:35:43;102090.22;;;1.95;93.13
71974;BME280;59840;52.122;5.404;2023-04-26T00:38:09;102086.44;;;1.89;93.72
71974;BME280;59840;52.122;5.404;2023-04-26T00:40:36;102086.09;;;1.84;94.11
71974;BME280;59840;52.122;5.404;2023-04-26T00:43:02;102085.44;;;1.82;94.11
71974;BME280;59840;52.122;5.404;2023-04-26T00:45:29;102082.47;;;1.77;94.12
71974;BME280;59840;52.122;5.404;2023-04-26T00:48:01;102085.38;;;1.66;93.94
71974;BME280;59840;52.122;5.404;2023-04-26T00:50:29;102080.75;;;1.52;94.04
71974;BME280;59840;52.122;5.404;2023-04-26T00:52:57;102083.78;;;1.47;93.98
71974;BME280;59840;52.122;5.404;2023-04-26T00:55:24;102078.38;;;1.41;94.24
71974;BME280;59840;52.122;5.404;2023-04-26T00:57:52;102080.66;;;1.36;94.23
71974;BME280;59840;52.122;5.404;2023-04-26T01:00:19;102083.56;;;1.32;94.22
71974;BME280;59840;52.122;5.404;2023-04-26T01:02:46;102086.25;;;1.23;93.80
71974;BME280;59840;52.122;5.404;2023-04-26T01:05:13;102083.88;;;1.12;94.27
71974;BME280;59840;52.122;5.404;2023-04-26T01:07:40;102084.50;;;1.06;94.06
71974;BME280;59840;52.122;5.404;2023-04-26T01:10:07;102085.47;;;1.05;94.25
71974;BME280;59840;52.122;5.404;2023-04-26T01:12:37;102084.59;;;0.96;94.19
71974;BME280;59840;52.122;5.404;2023-04-26T01:15:04;102085.88;;;0.92;94.55
71974;BME280;59840;52.122;5.404;2023-04-26T01:17:31;102090.75;;;0.95;94.85
71974;BME280;59840;52.122;5.404;2023-04-26T01:19:57;102093.59;;;1.02;95.40
71974;BME280;59840;52.122;5.404;2023-04-26T01:22:24;102103.50;;;1.06;95.53
71974;BME280;59840;52.122;5.404;2023-04-26T01:24:53;102099.34;;;1.13;95.99
71974;BME280;59840;52.122;5.404;2023-04-26T01:27:20;102094.00;;;1.15;96.18
71974;BME280;59840;52.122;5.404;2023-04-26T01:29:46;102099.69;;;1.18;96.00
71974;BME280;59840;52.122;5.404;2023-04-26T01:32:13;102094.81;;;1.15;95.87
71974;BME280;59840;52.122;5.404;2023-04-26T01:34:39;102097.91;;;1.19;96.39
71974;BME280;59840;52.122;5.404;2023-04-26T01:37:06;102096.81;;;1.21;96.67
71974;BME280;59840;52.122;5.404;2023-04-26T01:39:33;102097.09;;;1.18;96.48
71974;BME280;59840;52.122;5.404;2023-04-26T01:42:00;102094.50;;;1.18;96.76
71974;BME280;59840;52.122;5.404;2023-04-26T01:44:28;102103.78;;;1.21;96.89
71974;BME280;59840;52.122;5.404;2023-04-26T01:46:54;102095.69;;;1.24;96.76
71974;BME280;59840;52.122;5.404;2023-04-26T01:49:21;102097.63;;;1.22;97.07
71974;BME280;59840;52.122;5.404;2023-04-26T01:51:47;102093.69;;;1.18;96.81
71974;BME280;59840;52.122;5.404;2023-04-26T01:54:14;102087.00;;;1.15;97.13
71974;BME280;59840;52.122;5.404;2023-04-26T01:56:40;102093.31;;;1.13;96.94
71974;BME280;59840;52.122;5.404;2023-04-26T01:59:07;102085.97;;;1.08;97.07
71974;BME280;59840;52.122;5.404;2023-04-26T02:01:34;102086.59;;;1.02;96.94
71974;BME280;59840;52.122;5.404;2023-04-26T02:04:00;102077.09;;;0.93;97.13
71974;BME280;59840;52.122;5.404;2023-04-26T02:06:27;102084.81;;;0.85;96.60
71974;BME280;59840;52.122;5.404;2023-04-26T02:08:53;102080.66;;;0.74;96.47
71974;BME280;59840;52.122;5.404;2023-04-26T02:11:20;102086.47;;;0.68;96.05
71974;BME280;59840;52.122;5.404;2023-04-26T02:13:48;102093.09;;;0.62;95.98
71974;BME280;59840;52.122;5.404;2023-04-26T02:16:14;102090.25;;;0.56;95.75
71974;BME280;59840;52.122;5.404;2023-04-26T02:18:42;102090.25;;;0.56;95.84
71974;BME280;59840;52.122;5.404;2023-04-26T02:21:10;102085.34;;;0.53;95.71
71974;BME280;59840;52.122;5.404;2023-04-26T02:23:37;102092.25;;;0.44;95.59
71974;BME280;59840;52.122;5.404;2023-04-26T02:26:03;102088.25;;;0.32;95.75
71974;BME280;59840;52.122;5.404;2023-04-26T02:28:30;102088.38;;;0.30;95.73
71974;BME280;59840;52.122;5.404;2023-04-26T02:30:57;102092.91;;;0.28;95.62
71974;BME280;59840;52.122;5.404;2023-04-26T02:33:24;102101.78;;;0.26;95.70
71974;BME280;59840;52.122;5.404;2023-04-26T02:35:50;102096.22;;;0.21;96.02
71974;BME280;59840;52.122;5.404;2023-04-26T02:38:17;102104.16;;;0.19;96.10
71974;BME280;59840;52.122;5.404;2023-04-26T02:40:43;102098.97;;;0.19;95.75
71974;BME280;59840;52.122;5.404;2023-04-26T02:43:10;102092.94;;;0.19;95.90
71974;BME280;59840;52.122;5.404;2023-04-26T02:45:41;102090.66;;;0.16;95.91
71974;BME280;59840;52.122;5.404;2023-04-26T02:48:08;102089.28;;;0.12;95.83
71974;BME280;59840;52.122;5.404;2023-04-26T02:50:34;102093.94;;;0.08;96.02
71974;BME280;59840;52.122;5.404;2023-04-26T02:53:01;102084.00;;;0.04;96.25
71974;BME280;59840;52.122;5.404;2023-04-26T02:55:28;102085.63;;;0.05;96.26
71974;BME280;59840;52.122;5.404;2023-04-26T02:57:55;102083.03;;;0.05;96.04
71974;BME280;59840;52.122;5.404;2023-04-26T03:00:21;102087.69;;;0.01;95.81
71974;BME280;59840;52.122;5.404;2023-04-26T03:02:49;102087.34;;;-0.04;96.37
71974;BME280;59840;52.122;5.404;2023-04-26T03:05:15;102084.06;;;-0.06;96.68
71974;BME280;59840;52.122;5.404;2023-04-26T03:07:42;102079.69;;;-0.06;96.70
71974;BME280;59840;52.122;5.404;2023-04-26T03:10:09;102074.81;;;-0.09;96.60
71974;BME280;59840;52.122;5.404;2023-04-26T03:12:35;102069.63;;;-0.09;96.69
71974;BME280;59840;52.122;5.404;2023-04-26T03:15:02;102079.69;;;-0.06;96.63
71974;BME280;59840;52.122;5.404;2023-04-26T03:17:29;102081.34;;;-0.05;96.81
71974;BME280;59840;52.122;5.404;2023-04-26T03:19:55;102077.78;;;-0.04;96.94
71974;BME280;59840;52.122;5.404;2023-04-26T03:22:22;102079.69;;;-0.06;96.89
71974;BME280;59840;52.122;5.404;2023-04-26T03:24:48;102077.53;;;-0.10;96.53
71974;BME280;59840;52.122;5.404;2023-04-26T03:27:15;102077.69;;;-0.12;96.90
71974;BME280;59840;52.122;5.404;2023-04-26T03:29:41;102075.63;;;-0.08;97.29
71974;BME280;59840;52.122;5.404;2023-04-26T03:32:09;102078.75;;;-0.05;97.12
71974;BME280;59840;52.122;5.404;2023-04-26T03:34:36;102078.06;;;-0.07;96.84
71974;BME280;59840;52.122;5.404;2023-04-26T03:37:03;102070.44;;;-0.08;96.97
71974;BME280;59840;52.122;5.404;2023-04-26T03:39:29;102080.81;;;-0.08;96.87
71974;BME280;59840;52.122;5.404;2023-04-26T03:41:55;102067.03;;;-0.09;96.38
71974;BME280;59840;52.122;5.404;2023-04-26T03:44:22;102066.50;;;-0.12;96.65
71974;BME280;59840;52.122;5.404;2023-04-26T03:46:48;102069.22;;;-0.14;96.59
71974;BME280;59840;52.122;5.404;2023-04-26T03:49:15;102085.75;;;-0.15;96.47
71974;BME280;59840;52.122;5.404;2023-04-26T03:51:41;102080.84;;;-0.18;96.51
71974;BME280;59840;52.122;5.404;2023-04-26T03:54:08;102070.47;;;-0.18;96.48
71974;BME280;59840;52.122;5.404;2023-04-26T03:56:34;102077.56;;;-0.20;96.40
71974;BME280;59840;52.122;5.404;2023-04-26T03:59:02;102078.28;;;-0.27;96.51
71974;BME280;59840;52.122;5.404;2023-04-26T04:01:28;102076.25;;;-0.34;96.53
71974;BME280;59840;52.122;5.404;2023-04-26T04:03:55;102076.84;;;-0.40;96.56
71974;BME280;59840;52.122;5.404;2023-04-26T04:06:22;102076.03;;;-0.40;96.70
71974;BME280;59840;52.122;5.404;2023-04-26T04:08:48;102087.22;;;-0.40;97.22
71974;BME280;59840;52.122;5.404;2023-04-26T04:11:15;102069.88;;;-0.39;96.97
71974;BME280;59840;52.122;5.404;2023-04-26T04:13:42;102079.31;;;-0.38;97.11
71974;BME280;59840;52.122;5.404;2023-04-26T04:16:08;102075.88;;;-0.39;97.27
71974;BME280;59840;52.122;5.404;2023-04-26T04:18:35;102077.06;;;-0.33;97.41
71974;BME280;59840;52.122;5.404;2023-04-26T04:21:02;102074.06;;;-0.28;97.26
71974;BME280;59840;52.122;5.404;2023-04-26T04:23:29;102072.28;;;-0.28;96.78
71974;BME280;59840;52.122;5.404;2023-04-26T04:25:56;102067.75;;;-0.26;97.22
71974;BME280;59840;52.122;5.404;2023-04-26T04:28:22;102063.94;;;-0.22;97.09
71974;BME280;59840;52.122;5.404;2023-04-26T04:30:49;102069.66;;;-0.18;96.57
71974;BME280;59840;52.122;5.404;2023-04-26T04:33:16;102067.88;;;-0.18;96.89
71974;BME280;59840;52.122;5.404;2023-04-26T04:35:43;102073.75;;;-0.16;97.03
71974;BME280;59840;52.122;5.404;2023-04-26T04:38:10;102073.97;;;-0.09;96.91
71974;BME280;59840;52.122;5.404;2023-04-26T04:40:36;102073.59;;;-0.14;96.77
71974;BME280;59840;52.122;5.404;2023-04-26T04:43:02;102073.03;;;-0.08;96.73
71974;BME280;59840;52.122;5.404;2023-04-26T04:45:29;102070.06;;;0.05;97.45
71974;BME280;59840;52.122;5.404;2023-04-26T04:47:55;102075.75;;;0.18;97.32
71974;BME280;59840;52.122;5.404;2023-04-26T04:50:22;102078.66;;;0.32;97.04
71974;BME280;59840;52.122;5.404;2023-04-26T04:52:49;102078.16;;;0.47;97.10
71974;BME280;59840;52.122;5.404;2023-04-26T04:55:16;102079.72;;;0.57;96.85
71974;BME280;59840;52.122;5.404;2023-04-26T04:57:42;102076.25;;;0.66;96.64
71974;BME280;59840;52.122;5.404;2023-04-26T05:00:09;102079.09;;;0.81;96.28
71974;BME280;59840;52.122;5.404;2023-04-26T05:02:38;102080.44;;;1.03;95.68
71974;BME280;59840;52.122;5.404;2023-04-26T05:05:05;102080.19;;;1.14;96.05
71974;BME280;59840;52.122;5.404;2023-04-26T05:07:31;102085.22;;;1.16;94.83
71974;BME280;59840;52.122;5.404;2023-04-26T05:09:59;102083.84;;;1.04;94.64
71974;BME280;59840;52.122;5.404;2023-04-26T05:12:25;102086.22;;;0.97;94.69
71974;BME280;59840;52.122;5.404;2023-04-26T05:14:52;102090.63;;;0.96;94.91
71974;BME280;59840;52.122;5.404;2023-04-26T05:17:19;102093.09;;;1.06;95.30
71974;BME280;59840;52.122;5.404;2023-04-26T05:19:45;102093.25;;;1.22;95.48
71974;BME280;59840;52.122;5.404;2023-04-26T05:22:12;102099.59;;;1.54;95.58
71974;BME280;59840;52.122;5.404;2023-04-26T05:24:45;102102.16;;;2.14;95.48
71974;BME280;59840;52.122;5.404;2023-04-26T05:27:12;102107.38;;;2.22;94.68
71974;BME280;59840;52.122;5.404;2023-04-26T05:29:38;102103.69;;;2.32;94.80
71974;BME280;59840;52.122;5.404;2023-04-26T05:32:05;102097.75;;;2.73;94.12
71974;BME280;59840;52.122;5.404;2023-04-26T05:34:32;102097.72;;;3.29;92.07
71974;BME280;59840;52.122;5.404;2023-04-26T05:36:59;102102.59;;;3.16;91.57
71974;BME280;59840;52.122;5.404;2023-04-26T05:39:25;102102.94;;;3.13;92.81
71974;BME280;59840;52.122;5.404;2023-04-26T05:41:52;102104.88;;;3.27;92.25
71974;BME280;59840;52.122;5.404;2023-04-26T05:44:19;102112.53;;;3.37;92.24
71974;BME280;59840;52.122;5.404;2023-04-26T05:46:45;102105.84;;;3.43;92.20
71974;BME280;59840;52.122;5.404;2023-04-26T05:49:12;102101.41;;;3.59;92.53
71974;BME280;59840;52.122;5.404;2023-04-26T05:51:39;102104.16;;;4.13;92.82
71974;BME280;59840;52.122;5.404;2023-04-26T05:54:05;102102.25;;;4.84;90.13
71974;BME280;59840;52.122;5.404;2023-04-26T05:56:33;102100.66;;;6.09;86.97
71974;BME280;59840;52.122;5.404;2023-04-26T05:58:59;102097.47;;;6.70;82.79
71974;BME280;59840;52.122;5.404;2023-04-26T06:01:26;102096.94;;;6.18;83.47
71974;BME280;59840;52.122;5.404;2023-04-26T06:03:53;102095.41;;;6.45;83.75
71974;BME280;59840;52.122;5.404;2023-04-26T06:06:25;102100.84;;;6.64;82.06
71974;BME280;59840;52.122;5.404;2023-04-26T06:08:53;102102.19;;;7.24;80.58
71974;BME280;59840;52.122;5.404;2023-04-26T06:11:20;102098.91;;;7.50;79.59
71974;BME280;59840;52.122;5.404;2023-04-26T06:13:47;102104.19;;;7.01;82.10
71974;BME280;59840;52.122;5.404;2023-04-26T06:16:13;102097.22;;;6.87;82.63
71974;BME280;59840;52.122;5.404;2023-04-26T06:18:40;102095.63;;;7.14;82.16
71974;BME280;59840;52.122;5.404;2023-04-26T06:21:07;102093.59;;;6.88;81.43
71974;BME280;59840;52.122;5.404;2023-04-26T06:23:33;102095.97;;;6.40;83.04
71974;BME280;59840;52.122;5.404;2023-04-26T06:26:00;102100.81;;;6.22;83.36
71974;BME280;59840;52.122;5.404;2023-04-26T06:28:26;102115.13;;;6.04;84.52
71974;BME280;59840;52.122;5.404;2023-04-26T06:30:53;102110.97;;;5.95;85.76
71974;BME280;59840;52.122;5.404;2023-04-26T06:33:19;102109.97;;;5.96;86.28
71974;BME280;59840;52.122;5.404;2023-04-26T06:35:46;102114.13;;;6.05;85.48
71974;BME280;59840;52.122;5.404;2023-04-26T06:38:12;102110.50;;;6.21;85.73
71974;BME280;59840;52.122;5.404;2023-04-26T06:40:39;102115.56;;;6.44;83.92
71974;BME280;59840;52.122;5.404;2023-04-26T06:43:06;102122.59;;;6.58;83.81
71974;BME280;59840;52.122;5.404;2023-04-26T06:45:32;102121.97;;;6.56;83.39
71974;BME280;59840;52.122;5.404;2023-04-26T06:47:59;102129.06;;;6.62;84.13
71974;BME280;59840;52.122;5.404;2023-04-26T06:50:26;102127.84;;;6.58;82.09
71974;BME280;59840;52.122;5.404;2023-04-26T06:52:53;102135.91;;;6.42;81.50
71974;BME280;59840;52.122;5.404;2023-04-26T06:55:20;102136.09;;;6.41;82.59
71974;BME280;59840;52.122;5.404;2023-04-26T06:57:46;102135.81;;;6.50;84.51
71974;BME280;59840;52.122;5.404;2023-04-26T07:00:13;102133.63;;;6.75;83.29
71974;BME280;59840;52.122;5.404;2023-04-26T07:02:39;102135.44;;;6.96;81.62
71974;BME280;59840;52.122;5.404;2023-04-26T07:05:07;102131.69;;;7.26;81.66
71974;BME280;59840;52.122;5.404;2023-04-26T07:07:34;102126.69;;;7.38;78.42
71974;BME280;59840;52.122;5.404;2023-04-26T07:10:01;102129.25;;;7.31;78.91
71974;BME280;59840;52.122;5.404;2023-04-26T07:12:28;102127.50;;;7.38;79.64
71974;BME280;59840;52.122;5.404;2023-04-26T07:14:55;102130.63;;;7.49;77.69
71974;BME280;59840;52.122;5.404;2023-04-26T07:17:21;102122.69;;;7.42;75.42
71974;BME280;59840;52.122;5.404;2023-04-26T07:19:48;102120.75;;;7.23;75.17
71974;BME280;59840;52.122;5.404;2023-04-26T07:22:14;102123.19;;;7.24;77.34
71974;BME280;59840;52.122;5.404;2023-04-26T07:24:41;102124.88;;;7.38;77.29
71974;BME280;59840;52.122;5.404;2023-04-26T07:27:07;102122.34;;;7.52;75.98
71974;BME280;59840;52.122;5.404;2023-04-26T07:29:34;102117.00;;;7.73;74.38
71974;BME280;59840;52.122;5.404;2023-04-26T07:32:00;102109.75;;;7.75;73.65
71974;BME280;59840;52.122;5.404;2023-04-26T07:34:27;102110.75;;;7.74;75.11
71974;BME280;59840;52.122;5.404;2023-04-26T07:36:53;102109.97;;;7.80;73.89
71974;BME280;59840;52.122;5.404;2023-04-26T07:39:20;102116.53;;;7.63;73.33
71974;BME280;59840;52.122;5.404;2023-04-26T07:41:46;102123.41;;;7.57;73.06
71974;BME280;59840;52.122;5.404;2023-04-26T07:44:13;102120.97;;;7.62;73.67
71974;BME280;59840;52.122;5.404;2023-04-26T07:46:39;102123.22;;;7.65;74.33
71974;BME280;59840;52.122;5.404;2023-04-26T07:49:06;102122.41;;;7.58;74.20
71974;BME280;59840;52.122;5.404;2023-04-26T07:51:34;102129.84;;;7.55;74.29
71974;BME280;59840;52.122;5.404;2023-04-26T07:54:01;102129.28;;;7.66;74.43
71974;BME280;59840;52.122;5.404;2023-04-26T07:56:27;102126.22;;;7.56;73.38
71974;BME280;59840;52.122;5.404;2023-04-26T07:58:54;102134.72;;;7.58;74.11
71974;BME280;59840;52.122;5.404;2023-04-26T08:01:21;102128.47;;;7.59;73.84
71974;BME280;59840;52.122;5.404;2023-04-26T08:03:48;102139.75;;;7.87;73.38
71974;BME280;59840;52.122;5.404;2023-04-26T08:06:15;102132.59;;;8.16;72.01
71974;BME280;59840;52.122;5.404;2023-04-26T08:08:43;102134.84;;;8.25;68.85
71974;BME280;59840;52.122;5.404;2023-04-26T08:11:16;102139.44;;;8.10;71.07
71974;BME280;59840;52.122;5.404;2023-04-26T08:13:42;102130.50;;;8.04;68.31
71974;BME280;59840;52.122;5.404;2023-04-26T08:16:09;102123.28;;;8.13;66.07
71974;BME280;59840;52.122;5.404;2023-04-26T08:18:36;102131.13;;;8.06;69.23
71974;BME280;59840;52.122;5.404;2023-04-26T08:21:02;102127.31;;;8.16;68.86
71974;BME280;59840;52.122;5.404;2023-04-26T08:23:33;102135.63;;;8.19;66.67
71974;BME280;59840;52.122;5.404;2023-04-26T08:26:02;102140.88;;;8.13;67.25
71974;BME280;59840;52.122;5.404;2023-04-26T08:28:28;102138.78;;;8.01;65.87
71974;BME280;59840;52.122;5.404;2023-04-26T08:30:55;102136.91;;;7.89;65.41
71974;BME280;59840;52.122;5.404;2023-04-26T08:33:21;102144.16;;;7.80;67.60
71974;BME280;59840;52.122;5.404;2023-04-26T08:35:48;102134.75;;;7.64;66.77
71974;BME280;59840;52.122;5.404;2023-04-26T08:38:15;102129.22;;;7.53;68.31
71974;BME280;59840;52.122;5.404;2023-04-26T08:40:42;102136.88;;;7.48;66.13
71974;BME280;59840;52.122;5.404;2023-04-26T08:43:13;102132.44;;;7.48;67.67
71974;BME280;59840;52.122;5.404;2023-04-26T08:45:44;102122.13;;;7.47;68.00
71974;BME280;59840;52.122;5.404;2023-04-26T08:48:12;102133.00;;;7.44;68.25
71974;BME280;59840;52.122;5.404;2023-04-26T08:50:44;102138.19;;;7.37;68.05
71974;BME280;59840;52.122;5.404;2023-04-26T08:53:15;102142.41;;;7.31;68.62
71974;BME280;59840;52.122;5.404;2023-04-26T08:55:48;102141.38;;;7.26;69.74
71974;BME280;59840;52.122;5.404;2023-04-26T08:58:16;102146.81;;;7.24;69.93
71974;BME280;59840;52.122;5.404;2023-04-26T09:00:43;102144.50;;;7.15;70.00
71974;BME280;59840;52.122;5.404;2023-04-26T09:03:11;102145.19;;;7.02;69.82
71974;BME280;59840;52.122;5.404;2023-04-26T09:05:41;102143.28;;;6.89;70.46
71974;BME280;59840;52.122;5.404;2023-04-26T09:08:20;102148.25;;;6.84;70.74
71974;BME280;59840;52.122;5.404;2023-04-26T09:10:47;102144.63;;;6.85;71.30
71974;BME280;59840;52.122;5.404;2023-04-26T09:13:14;102138.41;;;6.86;71.61
71974;BME280;59840;52.122;5.404;2023-04-26T09:15:41;102133.59;;;6.90;71.02
71974;BME280;59840;52.122;5.404;2023-04-26T09:18:21;102137.88;;;6.97;70.45
71974;BME280;59840;52.122;5.404;2023-04-26T09:21:05;102126.06;;;7.08;70.54
71974;BME280;59840;52.122;5.404;2023-04-26T09:23:32;102135.63;;;7.16;70.95
71974;BME280;59840;52.122;5.404;2023-04-26T09:26:15;102139.75;;;7.25;70.12
71974;BME280;59840;52.122;5.404;2023-04-26T09:28:42;102143.81;;;7.34;69.21
71974;BME280;59840;52.122;5.404;2023-04-26T09:31:09;102136.81;;;7.41;67.88
71974;BME280;59840;52.122;5.404;2023-04-26T09:33:56;102142.75;;;7.50;69.08
71974;BME280;59840;52.122;5.404;2023-04-26T09:36:23;102137.16;;;7.59;68.07
71974;BME280;59840;52.122;5.404;2023-04-26T09:38:49;102148.88;;;7.63;68.48
71974;BME280;59840;52.122;5.404;2023-04-26T09:41:16;102142.72;;;7.78;67.82
71974;BME280;59840;52.122;5.404;2023-04-26T09:43:42;102135.69;;;7.85;67.42
71974;BME280;59840;52.122;5.404;2023-04-26T09:46:09;102135.34;;;8.01;66.77
71974;BME280;59840;52.122;5.404;2023-04-26T09:48:35;102137.84;;;8.16;65.60
71974;BME280;59840;52.122;5.404;2023-04-26T09:53:45;102132.66;;;8.29;66.90
71974;BME280;59840;52.122;5.404;2023-04-26T09:56:17;102133.13;;;8.46;66.02
71974;BME280;59840;52.122;5.404;2023-04-26T09:58:57;102134.75;;;8.53;63.03
71974;BME280;59840;52.122;5.404;2023-04-26T10:01:25;102131.38;;;8.66;65.84
71974;BME280;59840;52.122;5.404;2023-04-26T10:03:55;102128.34;;;8.89;63.56
71974;BME280;59840;52.122;5.404;2023-04-26T10:06:23;102133.00;;;8.93;62.36
71974;BME280;59840;52.122;5.404;2023-04-26T10:08:50;102128.75;;;8.99;62.51
71974;BME280;59840;52.122;5.404;2023-04-26T10:11:17;102122.69;;;8.98;61.55
71974;BME280;59840;52.122;5.404;2023-04-26T10:13:44;102121.44;;;9.01;60.52
71974;BME280;59840;52.122;5.404;2023-04-26T10:16:10;102121.47;;;9.07;61.00
71974;BME280;59840;52.122;5.404;2023-04-26T10:18:37;102123.09;;;9.15;60.70
71974;BME280;59840;52.122;5.404;2023-04-26T10:21:07;102123.47;;;9.12;59.54
71974;BME280;59840;52.122;5.404;2023-04-26T10:23:36;102129.56;;;9.13;59.44
71974;BME280;59840;52.122;5.404;2023-04-26T10:26:03;102124.31;;;9.19;58.70
71974;BME280;59840;52.122;5.404;2023-04-26T10:31:06;102130.78;;;9.17;58.29
71974;BME280;59840;52.122;5.404;2023-04-26T10:33:33;102124.50;;;9.11;59.89
71974;BME280;59840;52.122;5.404;2023-04-26T10:38:31;102120.44;;;8.89;59.53
71974;BME280;59840;52.122;5.404;2023-04-26T10:43:57;102119.22;;;8.78;61.29
71974;BME280;59840;52.122;5.404;2023-04-26T10:46:36;102121.22;;;8.76;62.15
71974;BME280;59840;52.122;5.404;2023-04-26T10:49:14;102122.66;;;8.65;62.36
71974;BME280;59840;52.122;5.404;2023-04-26T10:52:19;102124.06;;;8.68;62.33
71974;BME280;59840;52.122;5.404;2023-04-26T10:54:53;102123.66;;;8.78;60.22
71974;BME280;59840;52.122;5.404;2023-04-26T10:57:21;102120.84;;;8.79;63.33
71974;BME280;59840;52.122;5.404;2023-04-26T11:00:27;102115.41;;;9.00;62.07
71974;BME280;59840;52.122;5.404;2023-04-26T11:03:02;102123.47;;;9.05;61.52
71974;BME280;59840;52.122;5.404;2023-04-26T11:08:06;102125.69;;;9.02;59.82
71974;BME280;59840;52.122;5.404;2023-04-26T11:10:38;102124.09;;;9.01;61.57
71974;BME280;59840;52.122;5.404;2023-04-26T11:13:05;102124.69;;;9.03;59.27
71974;BME280;59840;52.122;5.404;2023-04-26T11:15:32;102116.59;;;9.04;58.27
71974;BME280;59840;52.122;5.404;2023-04-26T11:18:05;102117.81;;;9.08;57.22
71974;BME280;59840;52.122;5.404;2023-04-26T11:20:32;102111.72;;;9.08;57.65
71974;BME280;59840;52.122;5.404;2023-04-26T11:22:59;102100.38;;;9.01;58.25
71974;BME280;59840;52.122;5.404;2023-04-26T11:25:27;102100.78;;;9.04;57.88
71974;BME280;59840;52.122;5.404;2023-04-26T11:28:01;102114.56;;;9.13;59.02
71974;BME280;59840;52.122;5.404;2023-04-26T11:30:31;102100.38;;;9.01;57.69
71974;BME280;59840;52.122;5.404;2023-04-26T11:33:02;102099.59;;;9.00;57.11
71974;BME280;59840;52.122;5.404;2023-04-26T11:35:37;102103.03;;;9.14;58.23
71974;BME280;59840;52.122;5.404;2023-04-26T11:38:04;102100.19;;;9.35;59.25
71974;BME280;59840;52.122;5.404;2023-04-26T11:40:31;102095.88;;;9.54;59.48
71974;BME280;59840;52.122;5.404;2023-04-26T11:42:59;102104.59;;;9.61;58.04
71974;BME280;59840;52.122;5.404;2023-04-26T11:45:27;102098.72;;;9.59;58.28
71974;BME280;59840;52.122;5.404;2023-04-26T11:47:54;102093.84;;;9.63;57.35
71974;BME280;59840;52.122;5.404;2023-04-26T11:50:21;102091.03;;;9.45;57.82
71974;BME280;59840;52.122;5.404;2023-04-26T11:52:56;102099.59;;;9.33;57.02
71974;BME280;59840;52.122;5.404;2023-04-26T11:55:26;102105.22;;;9.50;59.53
71974;BME280;59840;52.122;5.404;2023-04-26T11:57:53;102092.72;;;9.90;58.96
71974;BME280;59840;52.122;5.404;2023-04-26T12:00:20;102101.06;;;9.87;56.06
71974;BME280;59840;52.122;5.404;2023-04-26T12:02:47;102093.94;;;9.94;54.63
71974;BME280;59840;52.122;5.404;2023-04-26T12:05:28;102090.47;;;10.00;57.13
71974;BME280;59840;52.122;5.404;2023-04-26T12:07:59;102090.88;;;9.97;56.95
71974;BME280;59840;52.122;5.404;2023-04-26T12:10:29;102089.88;;;9.92;55.68
71974;BME280;59840;52.122;5.404;2023-04-26T12:12:58;102098.22;;;9.82;57.09
71974;BME280;59840;52.122;5.404;2023-04-26T12:15:28;102107.00;;;9.69;57.36
71974;BME280;59840;52.122;5.404;2023-04-26T12:18:05;102099.94;;;9.57;57.21
71974;BME280;59840;52.122;5.404;2023-04-26T12:20:33;102099.94;;;9.50;58.94
71974;BME280;59840;52.122;5.404;2023-04-26T12:23:07;102103.19;;;9.46;57.84
71974;BME280;59840;52.122;5.404;2023-04-26T12:25:37;102099.59;;;9.33;57.84
71974;BME280;59840;52.122;5.404;2023-04-26T12:28:05;102106.88;;;9.25;56.65
71974;BME280;59840;52.122;5.404;2023-04-26T12:30:38;102104.25;;;9.12;58.89
71974;BME280;59840;52.122;5.404;2023-04-26T12:33:05;102110.34;;;8.99;58.20
71974;BME280;59840;52.122;5.404;2023-04-26T12:35:42;102107.31;;;8.95;58.66
71974;BME280;59840;52.122;5.404;2023-04-26T12:38:08;102100.00;;;8.97;60.30
71974;BME280;59840;52.122;5.404;2023-04-26T12:40:35;102108.09;;;8.96;58.21
71974;BME280;59840;52.122;5.404;2023-04-26T12:43:02;102109.91;;;8.89;58.74
71974;BME280;59840;52.122;5.404;2023-04-26T12:45:29;102110.75;;;8.96;59.16
71974;BME280;59840;52.122;5.404;2023-04-26T12:47:55;102112.34;;;8.84;58.97
71974;BME280;59840;52.122;5.404;2023-04-26T12:50:22;102107.69;;;8.86;61.83
71974;BME280;59840;52.122;5.404;2023-04-26T12:52:49;102106.69;;;9.00;60.60
71974;BME280;59840;52.122;5.404;2023-04-26T12:55:16;102112.53;;;9.15;60.06
71974;BME280;59840;52.122;5.404;2023-04-26T12:57:43;102094.72;;;9.24;60.52
71974;BME280;59840;52.122;5.404;2023-04-26T13:00:14;102103.41;;;9.37;60.86
71974;BME280;59840;52.122;5.404;2023-04-26T13:02:42;102098.53;;;9.54;59.04
71974;BME280;59840;52.122;5.404;2023-04-26T13:05:10;102103.72;;;9.74;58.91
71974;BME280;59840;52.122;5.404;2023-04-26T13:07:38;102102.34;;;9.65;58.45
71974;BME280;59840;52.122;5.404;2023-04-26T13:10:06;102103.78;;;9.54;56.12
71974;BME280;59840;52.122;5.404;2023-04-26T13:12:35;102104.63;;;9.41;56.67
71974;BME280;59840;52.122;5.404;2023-04-26T13:15:02;102114.56;;;9.33;58.62
71974;BME280;59840;52.122;5.404;2023-04-26T13:17:29;102109.50;;;9.18;60.07